• Join FlightAware (Why Join?)
  • Login
  • US Flag 
09:39AM EDT


 

Airport Tracker/Info


-or-


 

Live Flight TrackerFlight Track Log ✈ SWA1464 ✈ 28-Apr-2013 ✈ KMDW - KOMA

Flight Track Log - Related Links

Times and Time Zones

All times are in EDT time to prevent confusion due to time zone crossing. See the SWA1464 flight status page for this flight to view local times or setup timezone preferences in your user account.

Time Position Orientation Groundspeed Altitude Reporting Facility
EDT Latitude Longitude Course Direction KTS MPH feet Rate Location/Type
11:20PM 41.8000 -87.8000 292° West 222 255 3,000  Level Chicago TRACON
11:21PM 41.7833 -87.8833 255° West 215 247 3,800 1,380 Climbing Chicago TRACON
11:22PM 41.7578 -87.9353 237° Southwest 225 259 5,800 3,240 Climbing Chicago Center
11:23PM 41.7522 -88.0383 266° West 272 313 9,900 3,000 Climbing Chicago Center
11:24PM 41.7425 -88.1858 265° West 349 402 12,000 1,740 Climbing Chicago Center
11:26PM 41.7440 -88.3622 264° West  Level FlightAware Approximate
11:26PM 41.7261 -88.4547 264° West 368 423 15,300  Level Chicago Center
11:27PM 41.7447 -88.5897 281° West 385 443 18,300 2,880 Climbing Chicago Center
11:28PM 41.7867 -88.7264 292° West 395 455 21,200 2,700 Climbing Chicago Center
11:29PM 41.8000 -88.8758 277° West 414 476 23,800 2,340 Climbing Chicago Center
11:30PM 41.7978 -89.0328 269° West 422 486 26,000 2,160 Climbing Chicago Center
11:31PM 41.7933 -89.1956 268° West 438 504 28,200 2,280 Climbing Chicago Center
11:32PM 41.7914 -89.3550 269° West 434 499 30,600 2,460 Climbing Chicago Center
11:33PM 41.7869 -89.5450 268° West 430 495 33,300 2,220 Climbing Chicago Center
11:34PM 41.7828 -89.6828 268° West 423 487 35,200 1,320 Climbing Chicago Center
11:35PM 41.7800 -89.8347 269° West 415 478 36,000 360 Climbing Chicago Center
11:36PM 41.7753 -89.9844 268° West 408 470 36,000  Level Chicago Center
11:37PM 41.7717 -90.1347 268° West 406 467 36,000  Level Chicago Center
11:38PM 41.7669 -90.2858 268° West 407 468 36,000  Level Chicago Center
11:39PM 41.7606 -90.4403 267° West 412 474 36,000  Level Chicago Center
11:40PM 41.7567 -90.5878 268° West 404 465 36,000  Level Chicago Center
11:41PM 41.7500 -90.7489 267° West 405 466 36,000  Level Chicago Center
11:43PM 41.7379 -90.8894 263° West  Level FlightAware Approximate
11:43PM 41.7397 -91.0456 263° West 403 464 36,000  Level Chicago Center
11:44PM 41.7342 -91.1917 267° West 398 458 36,000  Level Chicago Center
11:46PM 41.7283 -91.3392 267° West 399 459 36,000  Level Chicago Center
11:47PM 41.7214 -91.5139 267° West 396 456 36,000  Level Chicago Center
11:48PM 41.7147 -91.6617 267° West 398 458 36,000  Level Chicago Center
11:49PM 41.7089 -91.8072 267° West 398 458 36,000  Level Chicago Center
11:50PM 41.7019 -91.9553 266° West 400 460 36,000  Level Chicago Center
11:51PM 41.6950 -92.1022 266° West 400 460 36,000  Level Chicago Center
11:52PM 41.6878 -92.2497 266° West 400 460 36,000  Level Chicago Center
11:53PM 41.6806 -92.3969 266° West 400 460 36,000  Level Chicago Center
11:54PM 41.6733 -92.5447 266° West 401 461 36,000  Level Chicago Center
11:54PM 41.6675 -92.6750 267° West 398 458 36,000  Level Minneapolis Center
11:55PM 41.6586 -92.8206 265° West 397 457 36,000  Level Minneapolis Center
11:56PM 41.6511 -92.9636 266° West 394 453 36,000  Level Minneapolis Center
11:57PM 41.6436 -93.1061 266° West 390 449 36,000  Level Minneapolis Center
11:58PM 41.6353 -93.2483 266° West 389 448 36,000  Level Minneapolis Center
11:59PM 41.6283 -93.3622 265° West 388 447 36,000  Level Minneapolis Center
12:00AM 41.6186 -93.5314 266° West 386 444 36,000  Level Minneapolis Center
12:01AM 41.6086 -93.6717 265° West 384 442 36,000 -240 Level Minneapolis Center
12:03AM 41.5922 -93.8433 263° West 390 449 35,600 -1,560 Descending Minneapolis Center
12:04AM 41.5781 -93.9847 262° West 390 449 32,900 -2,880 Descending Minneapolis Center
12:05AM 41.5658 -94.1272 264° West 390 449 29,800 -2,880 Descending Minneapolis Center
12:06AM 41.5481 -94.2708 261° West 404 465 27,100 -2,580 Descending Minneapolis Center
12:07AM 41.5339 -94.4197 263° West 405 466 24,600 -2,520 Descending Minneapolis Center
12:08AM 41.5194 -94.5633 262° West 393 452 22,100 -2,520 Descending Minneapolis Center
12:09AM 41.5047 -94.7011 262° West 381 438 19,600 -2,640 Descending Minneapolis Center
12:09AM 41.5056 -94.8425 270° West 363 418 17,100 -2,640 Descending Minneapolis Center
12:10AM 41.4942 -94.9414 261° West 350 403 15,200 -2,160 Descending Minneapolis Center
12:11AM 41.4806 -94.9625 229° Southwest 349 402 14,700 -2,280 Descending Minneapolis Center
12:11AM 41.4789 -95.0744 269° West 337 388 12,900 -2,220 Descending Minneapolis Center
12:12AM 41.4672 -95.0864 217° Southwest 342 394 12,500 -2,280 Descending Minneapolis Center
12:12AM 41.4647 -95.1958 268° West 334 384 10,600 -1,980 Descending Minneapolis Center
12:13AM 41.4536 -95.2086 221° Southwest 338 389 10,500 -720 Descending Minneapolis Center
12:13AM 41.4514 -95.3033 268° West 322 371 10,000 -840 Descending Minneapolis Center
12:14AM 41.4417 -95.3236 237° Southwest 327 376 9,700 -1,500 Descending Minneapolis Center
12:14AM 41.4378 -95.4081 267° West 279 321 8,500 -1,740 Descending Minneapolis Center
12:15AM 41.4303 -95.4278 243° Southwest 306 352 8,000 -1,680 Descending Minneapolis Center
12:15AM 41.4247 -95.5208 265° West 282 325 6,700 -1,620 Descending Minneapolis Center
12:16AM 41.4186 -95.5294 227° Southwest 290 334 6,400 -1,920 Descending Minneapolis Center
12:16AM 41.4131 -95.6222 265° West 280 322 4,800 -1,920 Descending Minneapolis Center
12:17AM 41.4078 -95.6319 234° Southwest 284 327 4,500 -900 Descending Minneapolis Center
12:17AM 41.4006 -95.7183 264° West 236 272 3,900 -600 Descending Minneapolis Center
12:18AM 41.3972 -95.7225 223° Southwest 267 307 3,900 -540 Level Minneapolis Center
12:18AM 41.3908 -95.7889 263° West 176 203 3,400 -720 Descending Minneapolis Center
12:19AM 41.3897 -95.7908 233° Southwest 222 255 3,200 -1,020 Descending Minneapolis Center
12:19AM 41.3844 -95.8536 264° West 172 198 2,400 -840 Descending Minneapolis Center
12:20AM 41.3831 -95.8544 204° Southwest 193 222 2,400  Level Minneapolis Center
12:20AM 41.3778 -95.9100 263° West 146 168 2,400  Level Minneapolis Center
12:21AM 41.3767 -95.9111 217° Southwest 175 201 2,400 -420 Level Minneapolis Center
12:21AM 41.3594 -95.9508 240° Southwest 138 159 2,000 -540 Descending Minneapolis Center
12:22AM 41.3556 -95.9461 138° Southeast 156 180 1,900 -600 Descending Minneapolis Center
12:22AM 41.3286 -95.9267 152° Southeast 128 147 1,400 -600 Descending Minneapolis Center
12:23AM 41.3256 -95.9158 111° Southeast 143 165 1,300 -240 Descending Minneapolis Center
12:24AM 41.2964 -95.8875 144° Southeast 142 163 1,100 -240 Descending Minneapolis Center